sensor_id;sensor_type;location;lat;lon;timestamp;P1;durP1;ratioP1;P2;durP2;ratioP2
23370;SDS011;11858;51.056;3.712;2024-02-16T00:01:42;23.80;;;22.10;;
23370;SDS011;11858;51.056;3.712;2024-02-16T00:04:08;23.98;;;22.27;;
23370;SDS011;11858;51.056;3.712;2024-02-16T00:06:34;23.48;;;21.67;;
23370;SDS011;11858;51.056;3.712;2024-02-16T00:08:59;24.80;;;22.55;;
23370;SDS011;11858;51.056;3.712;2024-02-16T00:11:26;23.10;;;21.50;;
23370;SDS011;11858;51.056;3.712;2024-02-16T00:13:52;25.20;;;23.25;;
23370;SDS011;11858;51.056;3.712;2024-02-16T00:16:18;24.35;;;22.63;;
23370;SDS011;11858;51.056;3.712;2024-02-16T00:18:44;24.45;;;22.75;;
23370;SDS011;11858;51.056;3.712;2024-02-16T00:21:09;25.23;;;23.33;;
23370;SDS011;11858;51.056;3.712;2024-02-16T00:23:35;24.00;;;22.30;;
23370;SDS011;11858;51.056;3.712;2024-02-16T00:26:01;23.10;;;21.50;;
23370;SDS011;11858;51.056;3.712;2024-02-16T00:28:27;23.45;;;21.83;;
23370;SDS011;11858;51.056;3.712;2024-02-16T00:30:53;24.30;;;22.60;;
23370;SDS011;11858;51.056;3.712;2024-02-16T00:33:18;24.40;;;22.50;;
23370;SDS011;11858;51.056;3.712;2024-02-16T00:35:44;23.23;;;21.63;;
23370;SDS011;11858;51.056;3.712;2024-02-16T00:38:12;24.38;;;22.58;;
23370;SDS011;11858;51.056;3.712;2024-02-16T00:40:38;24.92;;;22.80;;
23370;SDS011;11858;51.056;3.712;2024-02-16T00:43:08;23.27;;;21.58;;
23370;SDS011;11858;51.056;3.712;2024-02-16T00:45:34;25.17;;;23.27;;
23370;SDS011;11858;51.056;3.712;2024-02-16T00:48:00;25.63;;;23.67;;
23370;SDS011;11858;51.056;3.712;2024-02-16T00:50:27;25.40;;;23.23;;
23370;SDS011;11858;51.056;3.712;2024-02-16T00:52:53;24.85;;;22.90;;
23370;SDS011;11858;51.056;3.712;2024-02-16T00:55:18;25.85;;;23.48;;
23370;SDS011;11858;51.056;3.712;2024-02-16T00:57:44;24.92;;;22.88;;
23370;SDS011;11858;51.056;3.712;2024-02-16T01:00:10;24.48;;;22.67;;
23370;SDS011;11858;51.056;3.712;2024-02-16T01:02:36;24.05;;;22.25;;
23370;SDS011;11858;51.056;3.712;2024-02-16T01:05:02;24.58;;;22.67;;
23370;SDS011;11858;51.056;3.712;2024-02-16T01:07:28;23.10;;;21.50;;
23370;SDS011;11858;51.056;3.712;2024-02-16T01:09:54;24.20;;;22.38;;
23370;SDS011;11858;51.056;3.712;2024-02-16T01:12:21;25.73;;;23.73;;
23370;SDS011;11858;51.056;3.712;2024-02-16T01:14:47;24.42;;;22.42;;
23370;SDS011;11858;51.056;3.712;2024-02-16T01:17:12;24.27;;;22.58;;
23370;SDS011;11858;51.056;3.712;2024-02-16T01:19:38;23.80;;;22.10;;
23370;SDS011;11858;51.056;3.712;2024-02-16T01:22:05;24.77;;;22.75;;
23370;SDS011;11858;51.056;3.712;2024-02-16T01:24:31;23.10;;;21.50;;
23370;SDS011;11858;51.056;3.712;2024-02-16T01:26:56;23.58;;;21.88;;
23370;SDS011;11858;51.056;3.712;2024-02-16T01:29:23;23.77;;;21.98;;
23370;SDS011;11858;51.056;3.712;2024-02-16T01:31:48;23.23;;;21.52;;
23370;SDS011;11858;51.056;3.712;2024-02-16T01:34:14;23.98;;;22.27;;
23370;SDS011;11858;51.056;3.712;2024-02-16T01:36:40;24.00;;;22.30;;
23370;SDS011;11858;51.056;3.712;2024-02-16T01:39:06;22.55;;;20.95;;
23370;SDS011;11858;51.056;3.712;2024-02-16T01:41:32;22.17;;;20.60;;
23370;SDS011;11858;51.056;3.712;2024-02-16T01:43:58;23.80;;;22.10;;
23370;SDS011;11858;51.056;3.712;2024-02-16T01:46:24;24.88;;;23.08;;
23370;SDS011;11858;51.056;3.712;2024-02-16T01:48:51;23.42;;;21.73;;
23370;SDS011;11858;51.056;3.712;2024-02-16T01:51:17;23.83;;;21.92;;
23370;SDS011;11858;51.056;3.712;2024-02-16T01:53:44;25.05;;;23.08;;
23370;SDS011;11858;51.056;3.712;2024-02-16T01:56:11;24.80;;;22.83;;
23370;SDS011;11858;51.056;3.712;2024-02-16T01:58:37;23.98;;;22.17;;
23370;SDS011;11858;51.056;3.712;2024-02-16T02:01:02;25.73;;;23.05;;
23370;SDS011;11858;51.056;3.712;2024-02-16T02:03:29;26.50;;;24.23;;
23370;SDS011;11858;51.056;3.712;2024-02-16T02:05:54;23.75;;;21.95;;
23370;SDS011;11858;51.056;3.712;2024-02-16T02:08:21;25.65;;;23.48;;
23370;SDS011;11858;51.056;3.712;2024-02-16T02:10:46;22.10;;;20.50;;
23370;SDS011;11858;51.056;3.712;2024-02-16T02:13:12;21.70;;;20.10;;
23370;SDS011;11858;51.056;3.712;2024-02-16T02:15:38;22.48;;;20.85;;
23370;SDS011;11858;51.056;3.712;2024-02-16T02:18:03;23.50;;;21.70;;
23370;SDS011;11858;51.056;3.712;2024-02-16T02:20:29;24.05;;;22.15;;
23370;SDS011;11858;51.056;3.712;2024-02-16T02:22:55;22.17;;;20.48;;
23370;SDS011;11858;51.056;3.712;2024-02-16T02:25:20;24.27;;;22.35;;
23370;SDS011;11858;51.056;3.712;2024-02-16T02:27:46;23.30;;;21.33;;
23370;SDS011;11858;51.056;3.712;2024-02-16T02:30:12;23.02;;;21.10;;
23370;SDS011;11858;51.056;3.712;2024-02-16T02:32:37;23.40;;;21.40;;
23370;SDS011;11858;51.056;3.712;2024-02-16T02:35:04;26.35;;;24.00;;
23370;SDS011;11858;51.056;3.712;2024-02-16T02:37:30;23.27;;;21.38;;
23370;SDS011;11858;51.056;3.712;2024-02-16T02:39:56;22.80;;;20.65;;
23370;SDS011;11858;51.056;3.712;2024-02-16T02:42:22;23.52;;;21.73;;
23370;SDS011;11858;51.056;3.712;2024-02-16T02:44:47;22.80;;;20.80;;
23370;SDS011;11858;51.056;3.712;2024-02-16T02:47:15;23.83;;;21.77;;
23370;SDS011;11858;51.056;3.712;2024-02-16T02:49:42;23.08;;;21.40;;
23370;SDS011;11858;51.056;3.712;2024-02-16T02:52:08;21.55;;;20.05;;
23370;SDS011;11858;51.056;3.712;2024-02-16T02:54:34;22.65;;;20.95;;
23370;SDS011;11858;51.056;3.712;2024-02-16T02:57:00;25.02;;;22.60;;
23370;SDS011;11858;51.056;3.712;2024-02-16T02:59:27;24.92;;;22.83;;
23370;SDS011;11858;51.056;3.712;2024-02-16T03:01:52;22.50;;;20.80;;
23370;SDS011;11858;51.056;3.712;2024-02-16T03:04:18;22.70;;;21.00;;
23370;SDS011;11858;51.056;3.712;2024-02-16T03:06:44;21.98;;;20.38;;
23370;SDS011;11858;51.056;3.712;2024-02-16T03:09:10;24.88;;;22.33;;
23370;SDS011;11858;51.056;3.712;2024-02-16T03:11:37;25.20;;;23.08;;
23370;SDS011;11858;51.056;3.712;2024-02-16T03:14:03;22.05;;;20.35;;
23370;SDS011;11858;51.056;3.712;2024-02-16T03:16:30;21.17;;;19.67;;
23370;SDS011;11858;51.056;3.712;2024-02-16T03:18:56;21.90;;;20.30;;
23370;SDS011;11858;51.056;3.712;2024-02-16T03:21:22;23.75;;;21.75;;
23370;SDS011;11858;51.056;3.712;2024-02-16T03:23:48;23.10;;;21.23;;
23370;SDS011;11858;51.056;3.712;2024-02-16T03:26:17;24.13;;;22.13;;
23370;SDS011;11858;51.056;3.712;2024-02-16T03:28:47;22.80;;;21.08;;
23370;SDS011;11858;51.056;3.712;2024-02-16T03:33:42;23.33;;;21.42;;
23370;SDS011;11858;51.056;3.712;2024-02-16T03:36:08;22.33;;;20.63;;
23370;SDS011;11858;51.056;3.712;2024-02-16T03:38:34;23.40;;;21.55;;
23370;SDS011;11858;51.056;3.712;2024-02-16T03:40:59;22.30;;;20.60;;
23370;SDS011;11858;51.056;3.712;2024-02-16T03:43:25;23.80;;;21.88;;
23370;SDS011;11858;51.056;3.712;2024-02-16T03:45:51;21.15;;;19.65;;
23370;SDS011;11858;51.056;3.712;2024-02-16T03:48:17;21.30;;;19.80;;
23370;SDS011;11858;51.056;3.712;2024-02-16T03:50:42;22.92;;;21.17;;
23370;SDS011;11858;51.056;3.712;2024-02-16T03:53:08;21.45;;;19.88;;
23370;SDS011;11858;51.056;3.712;2024-02-16T03:55:36;21.88;;;20.17;;
23370;SDS011;11858;51.056;3.712;2024-02-16T03:58:03;23.42;;;21.25;;
23370;SDS011;11858;51.056;3.712;2024-02-16T04:00:29;23.45;;;21.10;;
23370;SDS011;11858;51.056;3.712;2024-02-16T04:02:54;26.63;;;24.60;;
23370;SDS011;11858;51.056;3.712;2024-02-16T04:05:20;27.45;;;25.55;;
23370;SDS011;11858;51.056;3.712;2024-02-16T04:07:46;31.73;;;28.98;;
23370;SDS011;11858;51.056;3.712;2024-02-16T04:10:11;28.33;;;26.38;;
23370;SDS011;11858;51.056;3.712;2024-02-16T04:12:37;27.85;;;25.98;;
23370;SDS011;11858;51.056;3.712;2024-02-16T04:15:03;25.95;;;24.25;;
23370;SDS011;11858;51.056;3.712;2024-02-16T04:17:29;26.35;;;24.55;;
23370;SDS011;11858;51.056;3.712;2024-02-16T04:19:54;26.00;;;24.30;;
23370;SDS011;11858;51.056;3.712;2024-02-16T04:22:20;27.35;;;25.55;;
23370;SDS011;11858;51.056;3.712;2024-02-16T04:24:46;26.58;;;24.73;;
23370;SDS011;11858;51.056;3.712;2024-02-16T04:27:11;26.23;;;24.33;;
23370;SDS011;11858;51.056;3.712;2024-02-16T04:29:37;24.60;;;23.00;;
23370;SDS011;11858;51.056;3.712;2024-02-16T04:32:02;27.25;;;25.25;;
23370;SDS011;11858;51.056;3.712;2024-02-16T04:34:28;26.52;;;24.63;;
23370;SDS011;11858;51.056;3.712;2024-02-16T04:36:54;27.10;;;25.00;;
23370;SDS011;11858;51.056;3.712;2024-02-16T04:39:20;24.63;;;22.92;;
23370;SDS011;11858;51.056;3.712;2024-02-16T04:41:46;24.00;;;22.40;;
23370;SDS011;11858;51.056;3.712;2024-02-16T04:44:11;24.25;;;22.65;;
23370;SDS011;11858;51.056;3.712;2024-02-16T04:46:37;23.88;;;22.27;;
23370;SDS011;11858;51.056;3.712;2024-02-16T04:49:03;23.20;;;21.60;;
23370;SDS011;11858;51.056;3.712;2024-02-16T04:51:29;24.48;;;22.65;;
23370;SDS011;11858;51.056;3.712;2024-02-16T04:53:54;24.40;;;22.60;;
23370;SDS011;11858;51.056;3.712;2024-02-16T04:56:20;22.55;;;20.63;;
23370;SDS011;11858;51.056;3.712;2024-02-16T04:58:45;21.23;;;19.83;;
23370;SDS011;11858;51.056;3.712;2024-02-16T05:01:12;22.83;;;20.83;;
23370;SDS011;11858;51.056;3.712;2024-02-16T05:03:38;21.30;;;19.75;;
23370;SDS011;11858;51.056;3.712;2024-02-16T05:06:06;18.13;;;16.92;;
23370;SDS011;11858;51.056;3.712;2024-02-16T05:08:31;20.17;;;18.75;;
23370;SDS011;11858;51.056;3.712;2024-02-16T05:10:57;17.92;;;16.63;;
23370;SDS011;11858;51.056;3.712;2024-02-16T05:13:24;16.88;;;15.77;;
23370;SDS011;11858;51.056;3.712;2024-02-16T05:15:51;17.85;;;16.73;;
23370;SDS011;11858;51.056;3.712;2024-02-16T05:18:21;19.00;;;17.60;;
23370;SDS011;11858;51.056;3.712;2024-02-16T05:20:47;17.10;;;15.70;;
23370;SDS011;11858;51.056;3.712;2024-02-16T05:23:13;16.88;;;15.48;;
23370;SDS011;11858;51.056;3.712;2024-02-16T05:25:38;14.95;;;13.75;;
23370;SDS011;11858;51.056;3.712;2024-02-16T05:28:04;15.98;;;14.73;;
23370;SDS011;11858;51.056;3.712;2024-02-16T05:30:30;12.68;;;11.88;;
23370;SDS011;11858;51.056;3.712;2024-02-16T05:32:56;14.25;;;13.18;;
23370;SDS011;11858;51.056;3.712;2024-02-16T05:35:24;11.98;;;11.18;;
23370;SDS011;11858;51.056;3.712;2024-02-16T05:37:54;17.73;;;16.33;;
23370;SDS011;11858;51.056;3.712;2024-02-16T05:40:20;11.82;;;11.00;;
23370;SDS011;11858;51.056;3.712;2024-02-16T05:42:53;12.98;;;11.88;;
23370;SDS011;11858;51.056;3.712;2024-02-16T05:45:22;10.23;;;9.63;;
23370;SDS011;11858;51.056;3.712;2024-02-16T05:47:48;10.32;;;9.63;;
23370;SDS011;11858;51.056;3.712;2024-02-16T05:50:14;11.13;;;10.32;;
23370;SDS011;11858;51.056;3.712;2024-02-16T05:52:41;10.40;;;9.38;;
23370;SDS011;11858;51.056;3.712;2024-02-16T05:55:07;9.68;;;8.98;;
23370;SDS011;11858;51.056;3.712;2024-02-16T05:57:34;8.50;;;7.90;;
23370;SDS011;11858;51.056;3.712;2024-02-16T06:00:00;10.30;;;9.15;;
23370;SDS011;11858;51.056;3.712;2024-02-16T06:02:29;9.13;;;8.35;;
23370;SDS011;11858;51.056;3.712;2024-02-16T06:04:55;6.80;;;6.40;;
23370;SDS011;11858;51.056;3.712;2024-02-16T06:07:21;8.88;;;8.10;;
23370;SDS011;11858;51.056;3.712;2024-02-16T06:09:47;6.63;;;6.15;;
23370;SDS011;11858;51.056;3.712;2024-02-16T06:12:12;6.13;;;5.63;;
23370;SDS011;11858;51.056;3.712;2024-02-16T06:14:38;5.65;;;5.28;;
23370;SDS011;11858;51.056;3.712;2024-02-16T06:17:04;6.47;;;5.97;;
23370;SDS011;11858;51.056;3.712;2024-02-16T06:19:30;12.48;;;6.88;;
23370;SDS011;11858;51.056;3.712;2024-02-16T06:21:55;7.72;;;6.63;;
23370;SDS011;11858;51.056;3.712;2024-02-16T06:24:23;8.20;;;7.20;;
23370;SDS011;11858;51.056;3.712;2024-02-16T06:26:49;8.07;;;7.28;;
23370;SDS011;11858;51.056;3.712;2024-02-16T06:29:16;5.13;;;4.82;;
23370;SDS011;11858;51.056;3.712;2024-02-16T06:31:44;7.72;;;6.35;;
23370;SDS011;11858;51.056;3.712;2024-02-16T06:34:11;5.55;;;5.18;;
23370;SDS011;11858;51.056;3.712;2024-02-16T06:36:36;8.10;;;6.82;;
23370;SDS011;11858;51.056;3.712;2024-02-16T06:39:02;8.35;;;5.57;;
23370;SDS011;11858;51.056;3.712;2024-02-16T06:41:28;8.15;;;5.35;;
23370;SDS011;11858;51.056;3.712;2024-02-16T06:43:53;8.10;;;5.95;;
23370;SDS011;11858;51.056;3.712;2024-02-16T06:46:19;5.90;;;5.32;;
23370;SDS011;11858;51.056;3.712;2024-02-16T06:48:45;8.15;;;5.60;;
23370;SDS011;11858;51.056;3.712;2024-02-16T06:51:10;3.40;;;3.20;;
23370;SDS011;11858;51.056;3.712;2024-02-16T06:53:36;7.18;;;5.68;;
23370;SDS011;11858;51.056;3.712;2024-02-16T06:56:02;6.97;;;5.90;;
23370;SDS011;11858;51.056;3.712;2024-02-16T06:58:28;4.20;;;3.90;;
23370;SDS011;11858;51.056;3.712;2024-02-16T07:00:54;5.85;;;5.45;;
23370;SDS011;11858;51.056;3.712;2024-02-16T07:03:20;4.35;;;3.97;;
23370;SDS011;11858;51.056;3.712;2024-02-16T07:05:45;5.05;;;4.55;;
23370;SDS011;11858;51.056;3.712;2024-02-16T07:08:11;4.10;;;3.90;;
23370;SDS011;11858;51.056;3.712;2024-02-16T07:10:37;4.45;;;4.18;;
23370;SDS011;11858;51.056;3.712;2024-02-16T07:13:02;5.03;;;4.65;;
23370;SDS011;11858;51.056;3.712;2024-02-16T07:15:28;5.47;;;4.60;;
23370;SDS011;11858;51.056;3.712;2024-02-16T07:17:54;4.28;;;3.97;;
23370;SDS011;11858;51.056;3.712;2024-02-16T07:20:20;10.15;;;6.53;;
23370;SDS011;11858;51.056;3.712;2024-02-16T07:22:45;6.68;;;6.00;;
23370;SDS011;11858;51.056;3.712;2024-02-16T07:25:11;4.65;;;4.35;;
23370;SDS011;11858;51.056;3.712;2024-02-16T07:27:37;6.30;;;5.38;;
23370;SDS011;11858;51.056;3.712;2024-02-16T07:30:03;4.30;;;4.00;;
23370;SDS011;11858;51.056;3.712;2024-02-16T07:32:30;4.97;;;4.50;;
23370;SDS011;11858;51.056;3.712;2024-02-16T07:34:55;4.35;;;4.05;;
23370;SDS011;11858;51.056;3.712;2024-02-16T07:37:21;4.20;;;4.00;;
23370;SDS011;11858;51.056;3.712;2024-02-16T07:39:47;9.85;;;4.93;;
23370;SDS011;11858;51.056;3.712;2024-02-16T07:42:12;5.82;;;5.30;;
23370;SDS011;11858;51.056;3.712;2024-02-16T07:44:38;7.55;;;5.47;;
23370;SDS011;11858;51.056;3.712;2024-02-16T07:47:05;4.75;;;4.20;;
23370;SDS011;11858;51.056;3.712;2024-02-16T07:49:30;4.30;;;4.00;;
23370;SDS011;11858;51.056;3.712;2024-02-16T07:51:56;4.60;;;4.20;;
23370;SDS011;11858;51.056;3.712;2024-02-16T07:54:22;3.60;;;3.40;;
23370;SDS011;11858;51.056;3.712;2024-02-16T07:56:48;3.42;;;3.22;;
23370;SDS011;11858;51.056;3.712;2024-02-16T07:59:14;3.92;;;3.65;;
23370;SDS011;11858;51.056;3.712;2024-02-16T08:01:40;6.93;;;4.95;;
23370;SDS011;11858;51.056;3.712;2024-02-16T08:04:05;4.55;;;4.18;;
23370;SDS011;11858;51.056;3.712;2024-02-16T08:06:31;3.88;;;3.60;;
23370;SDS011;11858;51.056;3.712;2024-02-16T08:08:57;4.90;;;4.18;;
23370;SDS011;11858;51.056;3.712;2024-02-16T08:11:23;5.75;;;3.53;;
23370;SDS011;11858;51.056;3.712;2024-02-16T08:13:48;11.02;;;5.28;;
23370;SDS011;11858;51.056;3.712;2024-02-16T08:16:14;4.55;;;3.17;;
23370;SDS011;11858;51.056;3.712;2024-02-16T08:18:43;3.45;;;3.25;;
23370;SDS011;11858;51.056;3.712;2024-02-16T08:21:09;2.97;;;2.88;;
23370;SDS011;11858;51.056;3.712;2024-02-16T08:23:35;3.30;;;3.10;;
23370;SDS011;11858;51.056;3.712;2024-02-16T08:26:02;3.78;;;3.47;;
23370;SDS011;11858;51.056;3.712;2024-02-16T08:28:28;3.67;;;3.47;;
23370;SDS011;11858;51.056;3.712;2024-02-16T08:30:53;3.47;;;3.28;;
23370;SDS011;11858;51.056;3.712;2024-02-16T08:33:19;3.30;;;3.10;;
23370;SDS011;11858;51.056;3.712;2024-02-16T08:35:45;3.80;;;3.60;;
23370;SDS011;11858;51.056;3.712;2024-02-16T08:38:10;3.95;;;3.60;;
23370;SDS011;11858;51.056;3.712;2024-02-16T08:40:36;3.80;;;3.60;;
23370;SDS011;11858;51.056;3.712;2024-02-16T08:43:03;4.47;;;4.07;;
23370;SDS011;11858;51.056;3.712;2024-02-16T08:45:30;6.07;;;4.57;;
23370;SDS011;11858;51.056;3.712;2024-02-16T08:47:55;8.70;;;4.10;;
23370;SDS011;11858;51.056;3.712;2024-02-16T08:50:22;4.53;;;3.85;;
23370;SDS011;11858;51.056;3.712;2024-02-16T08:52:49;3.63;;;3.42;;
23370;SDS011;11858;51.056;3.712;2024-02-16T08:55:15;4.72;;;3.95;;
23370;SDS011;11858;51.056;3.712;2024-02-16T08:57:41;3.17;;;3.08;;
23370;SDS011;11858;51.056;3.712;2024-02-16T09:00:08;4.72;;;3.42;;
23370;SDS011;11858;51.056;3.712;2024-02-16T09:02:35;4.38;;;4.07;;
23370;SDS011;11858;51.056;3.712;2024-02-16T09:05:00;3.40;;;3.20;;
23370;SDS011;11858;51.056;3.712;2024-02-16T09:07:26;3.40;;;3.20;;
23370;SDS011;11858;51.056;3.712;2024-02-16T09:09:52;3.90;;;3.60;;
23370;SDS011;11858;51.056;3.712;2024-02-16T09:12:18;5.63;;;5.07;;
23370;SDS011;11858;51.056;3.712;2024-02-16T09:14:44;7.00;;;5.13;;
23370;SDS011;11858;51.056;3.712;2024-02-16T09:17:10;4.35;;;4.05;;
23370;SDS011;11858;51.056;3.712;2024-02-16T09:19:35;3.40;;;3.20;;
23370;SDS011;11858;51.056;3.712;2024-02-16T09:22:01;2.70;;;2.60;;
23370;SDS011;11858;51.056;3.712;2024-02-16T09:24:31;19.37;;;8.90;;
23370;SDS011;11858;51.056;3.712;2024-02-16T09:26:57;12.02;;;6.82;;
23370;SDS011;11858;51.056;3.712;2024-02-16T09:29:28;3.95;;;3.20;;
23370;SDS011;11858;51.056;3.712;2024-02-16T09:31:54;2.55;;;2.45;;
23370;SDS011;11858;51.056;3.712;2024-02-16T09:34:19;5.28;;;3.60;;
23370;SDS011;11858;51.056;3.712;2024-02-16T09:36:45;6.38;;;4.90;;
23370;SDS011;11858;51.056;3.712;2024-02-16T09:39:11;7.95;;;3.15;;
23370;SDS011;11858;51.056;3.712;2024-02-16T09:41:36;23.73;;;9.15;;
23370;SDS011;11858;51.056;3.712;2024-02-16T09:44:07;17.77;;;6.07;;
23370;SDS011;11858;51.056;3.712;2024-02-16T09:46:34;12.45;;;2.58;;
23370;SDS011;11858;51.056;3.712;2024-02-16T09:49:02;10.90;;;5.55;;
23370;SDS011;11858;51.056;3.712;2024-02-16T09:51:29;10.68;;;5.63;;
23370;SDS011;11858;51.056;3.712;2024-02-16T09:53:55;14.00;;;6.25;;
23370;SDS011;11858;51.056;3.712;2024-02-16T09:56:21;18.00;;;5.55;;
23370;SDS011;11858;51.056;3.712;2024-02-16T09:58:49;2.42;;;2.22;;
23370;SDS011;11858;51.056;3.712;2024-02-16T10:01:19;13.35;;;7.00;;
23370;SDS011;11858;51.056;3.712;2024-02-16T10:03:46;9.73;;;4.35;;
23370;SDS011;11858;51.056;3.712;2024-02-16T10:06:13;2.42;;;2.22;;
23370;SDS011;11858;51.056;3.712;2024-02-16T10:08:56;2.25;;;1.90;;
23370;SDS011;11858;51.056;3.712;2024-02-16T10:11:27;3.97;;;2.83;;
23370;SDS011;11858;51.056;3.712;2024-02-16T10:14:11;4.75;;;2.50;;
23370;SDS011;11858;51.056;3.712;2024-02-16T10:16:36;11.23;;;4.68;;
23370;SDS011;11858;51.056;3.712;2024-02-16T10:19:06;1.58;;;1.50;;
23370;SDS011;11858;51.056;3.712;2024-02-16T10:21:35;2.85;;;2.65;;
23370;SDS011;11858;51.056;3.712;2024-02-16T10:24:02;1.30;;;1.30;;
23370;SDS011;11858;51.056;3.712;2024-02-16T10:26:33;12.35;;;6.13;;
23370;SDS011;11858;51.056;3.712;2024-02-16T10:29:02;1.77;;;1.67;;
23370;SDS011;11858;51.056;3.712;2024-02-16T10:31:29;3.47;;;1.67;;
23370;SDS011;11858;51.056;3.712;2024-02-16T10:34:03;2.13;;;2.03;;
23370;SDS011;11858;51.056;3.712;2024-02-16T10:36:37;2.28;;;2.08;;
23370;SDS011;11858;51.056;3.712;2024-02-16T10:39:04;2.38;;;2.17;;
23370;SDS011;11858;51.056;3.712;2024-02-16T10:41:35;1.77;;;1.70;;
23370;SDS011;11858;51.056;3.712;2024-02-16T10:44:03;1.35;;;1.35;;
23370;SDS011;11858;51.056;3.712;2024-02-16T10:46:30;21.67;;;3.78;;
23370;SDS011;11858;51.056;3.712;2024-02-16T10:48:57;12.20;;;5.60;;
23370;SDS011;11858;51.056;3.712;2024-02-16T10:51:24;5.15;;;3.20;;
23370;SDS011;11858;51.056;3.712;2024-02-16T10:53:57;2.90;;;2.70;;
23370;SDS011;11858;51.056;3.712;2024-02-16T10:56:26;4.85;;;3.10;;
23370;SDS011;11858;51.056;3.712;2024-02-16T10:59:02;2.53;;;2.33;;
23370;SDS011;11858;51.056;3.712;2024-02-16T11:01:39;3.10;;;2.85;;
23370;SDS011;11858;51.056;3.712;2024-02-16T11:04:06;4.78;;;3.13;;
23370;SDS011;11858;51.056;3.712;2024-02-16T11:06:45;6.88;;;4.60;;
23370;SDS011;11858;51.056;3.712;2024-02-16T11:09:11;1.73;;;1.70;;
23370;SDS011;11858;51.056;3.712;2024-02-16T11:11:54;4.15;;;3.10;;
23370;SDS011;11858;51.056;3.712;2024-02-16T11:14:36;33.65;;;3.28;;
23370;SDS011;11858;51.056;3.712;2024-02-16T11:19:41;5.35;;;3.80;;
23370;SDS011;11858;51.056;3.712;2024-02-16T11:22:07;2.83;;;2.63;;
23370;SDS011;11858;51.056;3.712;2024-02-16T11:24:34;1.63;;;1.63;;
23370;SDS011;11858;51.056;3.712;2024-02-16T11:27:03;2.42;;;2.22;;
23370;SDS011;11858;51.056;3.712;2024-02-16T11:29:33;4.00;;;3.55;;
23370;SDS011;11858;51.056;3.712;2024-02-16T11:32:00;3.90;;;3.25;;
23370;SDS011;11858;51.056;3.712;2024-02-16T11:34:27;1.90;;;1.80;;
23370;SDS011;11858;51.056;3.712;2024-02-16T11:37:03;2.13;;;2.03;;
23370;SDS011;11858;51.056;3.712;2024-02-16T11:39:32;2.20;;;2.10;;
23370;SDS011;11858;51.056;3.712;2024-02-16T11:44:33;1.83;;;1.75;;
23370;SDS011;11858;51.056;3.712;2024-02-16T11:47:01;1.97;;;1.90;;
23370;SDS011;11858;51.056;3.712;2024-02-16T11:49:28;6.68;;;3.33;;
23370;SDS011;11858;51.056;3.712;2024-02-16T11:51:55;2.15;;;2.05;;
23370;SDS011;11858;51.056;3.712;2024-02-16T11:54:21;1.90;;;1.80;;
23370;SDS011;11858;51.056;3.712;2024-02-16T11:56:48;1.90;;;1.80;;
23370;SDS011;11858;51.056;3.712;2024-02-16T11:59:18;1.70;;;1.70;;
23370;SDS011;11858;51.056;3.712;2024-02-16T12:01:48;22.58;;;3.22;;
23370;SDS011;11858;51.056;3.712;2024-02-16T12:04:35;1.75;;;1.70;;
23370;SDS011;11858;51.056;3.712;2024-02-16T12:07:01;1.90;;;1.80;;
23370;SDS011;11858;51.056;3.712;2024-02-16T12:09:28;2.10;;;2.00;;
23370;SDS011;11858;51.056;3.712;2024-02-16T12:11:56;5.00;;;4.53;;
23370;SDS011;11858;51.056;3.712;2024-02-16T12:14:23;2.28;;;2.17;;
23370;SDS011;11858;51.056;3.712;2024-02-16T12:16:49;2.10;;;2.00;;
23370;SDS011;11858;51.056;3.712;2024-02-16T12:19:16;2.10;;;2.00;;
23370;SDS011;11858;51.056;3.712;2024-02-16T12:21:43;2.47;;;2.38;;
23370;SDS011;11858;51.056;3.712;2024-02-16T12:24:09;3.72;;;3.38;;
23370;SDS011;11858;51.056;3.712;2024-02-16T12:26:35;3.97;;;3.78;;
23370;SDS011;11858;51.056;3.712;2024-02-16T12:29:01;2.30;;;2.20;;
23370;SDS011;11858;51.056;3.712;2024-02-16T12:31:27;2.72;;;2.53;;
23370;SDS011;11858;51.056;3.712;2024-02-16T12:33:54;2.30;;;2.20;;
23370;SDS011;11858;51.056;3.712;2024-02-16T12:36:20;2.40;;;2.30;;
23370;SDS011;11858;51.056;3.712;2024-02-16T12:38:48;3.22;;;3.03;;
23370;SDS011;11858;51.056;3.712;2024-02-16T12:41:14;3.03;;;2.72;;
23370;SDS011;11858;51.056;3.712;2024-02-16T12:43:40;3.70;;;2.90;;
23370;SDS011;11858;51.056;3.712;2024-02-16T12:46:05;2.70;;;2.60;;
23370;SDS011;11858;51.056;3.712;2024-02-16T12:48:31;2.67;;;2.58;;
23370;SDS011;11858;51.056;3.712;2024-02-16T12:50:56;2.85;;;2.75;;
23370;SDS011;11858;51.056;3.712;2024-02-16T12:53:23;2.90;;;2.80;;
23370;SDS011;11858;51.056;3.712;2024-02-16T12:55:50;2.80;;;2.70;;
23370;SDS011;11858;51.056;3.712;2024-02-16T12:58:16;2.70;;;2.60;;
23370;SDS011;11858;51.056;3.712;2024-02-16T13:00:42;2.95;;;2.85;;
23370;SDS011;11858;51.056;3.712;2024-02-16T13:03:07;3.00;;;2.90;;
23370;SDS011;11858;51.056;3.712;2024-02-16T13:05:33;3.65;;;3.00;;
23370;SDS011;11858;51.056;3.712;2024-02-16T13:07:59;3.10;;;3.00;;
23370;SDS011;11858;51.056;3.712;2024-02-16T13:10:25;2.95;;;2.85;;
23370;SDS011;11858;51.056;3.712;2024-02-16T13:12:50;3.40;;;3.20;;
23370;SDS011;11858;51.056;3.712;2024-02-16T13:15:16;4.57;;;4.28;;
23370;SDS011;11858;51.056;3.712;2024-02-16T13:17:41;4.30;;;4.10;;
23370;SDS011;11858;51.056;3.712;2024-02-16T13:20:07;3.63;;;3.42;;
23370;SDS011;11858;51.056;3.712;2024-02-16T13:22:37;4.15;;;3.95;;
23370;SDS011;11858;51.056;3.712;2024-02-16T13:25:04;3.95;;;3.75;;
23370;SDS011;11858;51.056;3.712;2024-02-16T13:27:31;8.32;;;4.80;;
23370;SDS011;11858;51.056;3.712;2024-02-16T13:29:59;3.92;;;3.72;;
23370;SDS011;11858;51.056;3.712;2024-02-16T13:32:25;3.80;;;3.60;;
23370;SDS011;11858;51.056;3.712;2024-02-16T13:34:51;4.63;;;4.22;;
23370;SDS011;11858;51.056;3.712;2024-02-16T13:37:16;3.90;;;3.70;;
23370;SDS011;11858;51.056;3.712;2024-02-16T13:39:42;3.95;;;3.75;;
23370;SDS011;11858;51.056;3.712;2024-02-16T13:42:08;4.05;;;3.85;;
23370;SDS011;11858;51.056;3.712;2024-02-16T13:44:34;3.92;;;3.72;;
23370;SDS011;11858;51.056;3.712;2024-02-16T13:47:00;4.00;;;3.80;;
23370;SDS011;11858;51.056;3.712;2024-02-16T13:49:25;4.93;;;4.63;;
23370;SDS011;11858;51.056;3.712;2024-02-16T13:51:51;4.30;;;4.10;;
23370;SDS011;11858;51.056;3.712;2024-02-16T13:54:17;4.90;;;4.60;;
23370;SDS011;11858;51.056;3.712;2024-02-16T13:56:43;5.47;;;5.18;;
23370;SDS011;11858;51.056;3.712;2024-02-16T13:59:08;5.20;;;4.90;;
23370;SDS011;11858;51.056;3.712;2024-02-16T14:01:34;5.70;;;5.40;;
23370;SDS011;11858;51.056;3.712;2024-02-16T14:04:02;6.60;;;6.13;;
23370;SDS011;11858;51.056;3.712;2024-02-16T14:06:28;6.60;;;6.10;;
23370;SDS011;11858;51.056;3.712;2024-02-16T14:08:54;6.47;;;6.07;;
23370;SDS011;11858;51.056;3.712;2024-02-16T14:11:21;6.20;;;5.80;;
23370;SDS011;11858;51.056;3.712;2024-02-16T14:13:47;5.63;;;5.32;;
23370;SDS011;11858;51.056;3.712;2024-02-16T14:16:13;5.80;;;5.50;;
23370;SDS011;11858;51.056;3.712;2024-02-16T14:18:39;6.60;;;6.20;;
23370;SDS011;11858;51.056;3.712;2024-02-16T14:21:05;7.30;;;6.80;;
23370;SDS011;11858;51.056;3.712;2024-02-16T14:23:31;6.25;;;5.85;;
23370;SDS011;11858;51.056;3.712;2024-02-16T14:25:58;6.25;;;5.85;;
23370;SDS011;11858;51.056;3.712;2024-02-16T14:28:24;6.70;;;6.30;;
23370;SDS011;11858;51.056;3.712;2024-02-16T14:30:49;6.70;;;6.30;;
23370;SDS011;11858;51.056;3.712;2024-02-16T14:33:16;6.65;;;6.25;;
23370;SDS011;11858;51.056;3.712;2024-02-16T14:35:44;7.13;;;6.70;;
23370;SDS011;11858;51.056;3.712;2024-02-16T14:38:11;7.60;;;7.10;;
23370;SDS011;11858;51.056;3.712;2024-02-16T14:40:37;8.20;;;7.70;;